• Join FlightAware (Why Join?)
  • Login
  • US Flag 
Gobble Gobble! 
05:30AM EST


 

Airport Tracker/Info


-or-


 

Live Flight TrackerFlight Track Log ✈ N100PM ✈ 26-Oct-2013 ✈ KIMM - KAPF

Flight Track Log - Related Links

Times and Time Zones

All times are in EDT time to prevent confusion due to time zone crossing. See the N100PM flight status page for this flight to view local times or setup timezone preferences in your user account.

Time Position Orientation Groundspeed Altitude Reporting Facility
EDT Latitude Longitude Course Direction KTS MPH feet Rate Location/Type
09:45AM 26.3862 -81.4649 286° West  Level Estimated
09:46AM 26.3916 -81.4774 296° West  Level FlightAware Approximate
09:47AM 26.3970 -81.4898 296° West  Level FlightAware Approximate
09:48AM 26.4024 -81.5022 296° West  Level FlightAware Approximate
09:49AM 26.4078 -81.5147 296° West  Level FlightAware Approximate
09:50AM 26.4132 -81.5271 296° West  Level FlightAware Approximate
09:51AM 26.4185 -81.5395 296° West  Level FlightAware Approximate
09:52AM 26.4239 -81.5519 296° West  Level FlightAware Approximate
09:53AM 26.4293 -81.5644 296° West  Level FlightAware Approximate
09:54AM 26.4347 -81.5768 296° West  Level FlightAware Approximate
09:55AM 26.4401 -81.5893 296° West  Level FlightAware Approximate
09:56AM 26.4454 -81.6017 296° West  Level FlightAware Approximate
09:57AM 26.4508 -81.6142 296° West  Level FlightAware Approximate
09:58AM 26.4562 -81.6266 296° West  Level FlightAware Approximate
09:59AM 26.4616 -81.6390 296° West  Level FlightAware Approximate
10:00AM 26.4670 -81.6515 296° West  Level FlightAware Approximate
10:01AM 26.4553 -81.6561 104° East  Level Estimated
10:02AM 26.4541 -81.6423 95° East  Level FlightAware Approximate
10:03AM 26.4530 -81.6286 95° East  Level FlightAware Approximate
10:04AM 26.4518 -81.6148 95° East  Level FlightAware Approximate
10:05AM 26.4506 -81.6011 95° East  Level FlightAware Approximate
10:06AM 26.4495 -81.5873 95° East  Level FlightAware Approximate
10:07AM 26.4483 -81.5736 95° East  Level FlightAware Approximate
10:08AM 26.4471 -81.5598 95° East  Level FlightAware Approximate
10:09AM 26.4459 -81.5461 95° East  Level FlightAware Approximate
10:10AM 26.4447 -81.5323 95° East  Level FlightAware Approximate
10:11AM 26.4436 -81.5186 95° East  Level FlightAware Approximate
10:12AM 26.4424 -81.5048 95° East  Level FlightAware Approximate
10:13AM 26.4412 -81.4911 95° East  Level FlightAware Approximate
10:14AM 26.4400 -81.4773 95° East  Level FlightAware Approximate
10:15AM 26.4388 -81.4636 95° East  Level FlightAware Approximate
10:16AM 26.4376 -81.4498 95° East  Level FlightAware Approximate
10:17AM 26.4364 -81.4361 96° East  Level FlightAware Approximate
10:18AM 26.4353 -81.4223 96° East  Level FlightAware Approximate
10:19AM 26.4341 -81.4086 95° East  Level FlightAware Approximate
10:20AM 26.4329 -81.3948 95° East  Level FlightAware Approximate
10:21AM 26.4341 -81.4086 275° West  Level FlightAware Approximate
10:22AM 26.4329 -81.3948 95° East  Level FlightAware Approximate
10:23AM 26.4341 -81.4086 275° West  Level FlightAware Approximate
10:24AM 26.4329 -81.3948 95° East  Level FlightAware Approximate
10:25AM 26.4341 -81.4086 275° West  Level FlightAware Approximate
10:26AM 26.4329 -81.3948 95° East  Level FlightAware Approximate
10:27AM 26.4341 -81.4086 275° West  Level FlightAware Approximate
10:28AM 26.4328 -81.4007 228° Southwest  Level FlightAware Approximate
10:29AM 26.4244 -81.4109 228° Southwest  Level FlightAware Approximate
10:30AM 26.4161 -81.4212 228° Southwest  Level FlightAware Approximate
10:31AM 26.4079 -81.4314 228° Southwest  Level FlightAware Approximate
10:32AM 26.3995 -81.4417 228° Southwest  Level FlightAware Approximate
10:33AM 26.3913 -81.4519 228° Southwest  Level FlightAware Approximate
10:34AM 26.3829 -81.4622 228° Southwest  Level FlightAware Approximate
10:35AM 26.3746 -81.4724 228° Southwest  Level FlightAware Approximate
10:36AM 26.3664 -81.4826 228° Southwest  Level FlightAware Approximate
10:37AM 26.3580 -81.4928 228° Southwest  Level FlightAware Approximate
10:38AM 26.3497 -81.5031 228° Southwest  Level FlightAware Approximate
10:39AM 26.3414 -81.5133 228° Southwest  Level FlightAware Approximate
10:40AM 26.3331 -81.5235 228° Southwest  Level FlightAware Approximate
10:41AM 26.3248 -81.5338 228° Southwest  Level FlightAware Approximate
10:42AM 26.3165 -81.5440 228° Southwest  Level FlightAware Approximate
10:43AM 26.3082 -81.5542 228° Southwest  Level FlightAware Approximate
10:44AM 26.2999 -81.5644 228° Southwest  Level FlightAware Approximate
10:45AM 26.2916 -81.5746 228° Southwest  Level FlightAware Approximate
10:46AM 26.2833 -81.5849 228° Southwest  Level FlightAware Approximate
10:47AM 26.2750 -81.5951 228° Southwest  Level FlightAware Approximate
10:48AM 26.2666 -81.6053 228° Southwest  Level FlightAware Approximate
10:49AM 26.2583 -81.6155 228° Southwest  Level FlightAware Approximate
10:50AM 26.2500 -81.6257 228° Southwest  Level FlightAware Approximate
10:51AM 26.2417 -81.6359 228° Southwest  Level FlightAware Approximate
10:52AM 26.2334 -81.6461 228° Southwest  Level FlightAware Approximate
10:53AM 26.2251 -81.6563 228° Southwest  Level FlightAware Approximate
10:54AM 26.2168 -81.6666 228° Southwest  Level FlightAware Approximate
10:55AM 26.2107 -81.6786 241° Southwest  Level FlightAware Approximate
10:56AM 26.2047 -81.6906 241° Southwest  Level FlightAware Approximate
10:57AM 26.1982 -81.7023 230° Southwest  Level FlightAware Approximate
10:58AM 26.1903 -81.7129 230° Southwest  Level FlightAware Approximate
10:59AM 26.1824 -81.7235 230° Southwest  Level FlightAware Approximate
11:00AM 26.1745 -81.7341 230° Southwest  Level FlightAware Approximate
11:01AM 26.1665 -81.7447 230° Southwest  Level FlightAware Approximate
11:02AM 26.1586 -81.7552 230° Southwest  Level FlightAware Approximate
11:03AM 26.1507 -81.7658 230° Southwest  Level FlightAware Approximate
11:04AM 26.1500 -81.7667 230° Southwest  Level FlightAware Approximate
11:05AM 26.1524 -81.7756 230° Southwest  Level Estimated
11:06AM 26.1524 -81.7756 230° Southwest  Level Estimated
11:07AM 26.1524 -81.7756 230° Southwest  Level Estimated
11:08AM 26.1524 -81.7756 230° Southwest  Level Estimated
11:09AM 26.1524 -81.7756 230° Southwest  Level Estimated
11:10AM 26.1524 -81.7756 230° Southwest  Level Estimated
11:11AM 26.1524 -81.7756 230° Southwest  Level Estimated
11:12AM 26.1524 -81.7756 230° Southwest  Level Estimated
11:13AM 26.1524 -81.7756 230° Southwest  Level Estimated
11:14AM 26.1524 -81.7756 230° Southwest  Level Estimated
11:15AM 26.1524 -81.7756 230° Southwest  Level Estimated
11:16AM 26.1524 -81.7756 230° Southwest  Level Estimated
11:17AM 26.1524 -81.7756 230° Southwest  Level Estimated
11:18AM 26.1524 -81.7756 230° Southwest  Level Estimated
11:19AM 26.1524 -81.7756 230° Southwest  Level Estimated
11:20AM 26.1524 -81.7756 230° Southwest  Level Estimated
11:21AM 26.1524 -81.7756 230° Southwest  Level Estimated
11:22AM 26.1524 -81.7756 230° Southwest  Level Estimated
11:23AM 26.1524 -81.7756 230° Southwest  Level Estimated
11:24AM 26.1524 -81.7756 230° Southwest  Level Estimated
11:25AM 26.1524 -81.7756 230° Southwest  Level Estimated